Time;durP1;ratioP1;P1;durP2;ratioP2;P2;SDS_P1;SDS_P2;PMS_P1;PMS_P2;Temp;Humidity;BMP_temperature;BMP_pressure;BME280_temperature;BME280_humidity;BME280_pressure;Samples;Min_cycle;Max_cycle;Signal;HPM_P1;HPM_P2
2023/05/15 00:00:51;;;;;;;;;;;;;;;13.51;100.00;95276.88;5073496;28;1033;-53
2023/05/15 00:03:17;;;;;;;;;;;;;;;13.56;100.00;95257.53;5073364;28;1030;-53
2023/05/15 00:05:43;;;;;;;;;;;;;;;13.56;100.00;95239.56;5073677;28;1368;-53
2023/05/15 00:08:09;;;;;;;;;;;;;;;13.51;100.00;95219.59;5073619;28;1546;-53
2023/05/15 00:10:35;;;;;;;;;;;;;;;13.39;100.00;95228.09;5073622;28;1214;-53
2023/05/15 00:13:01;;;;;;;;;;;;;;;13.32;100.00;95208.31;5073434;28;1902;-53
2023/05/15 00:15:27;;;;;;;;;;;;;;;13.41;100.00;95220.69;5073275;28;1017;-53
2023/05/15 00:17:53;;;;;;;;;;;;;;;13.59;100.00;95214.19;5073350;28;1042;-53
2023/05/15 00:20:19;;;;;;;;;;;;;;;13.55;100.00;95220.94;5073138;28;1022;-53
2023/05/15 00:22:45;;;;;;;;;;;;;;;13.51;100.00;95227.66;5073175;28;1061;-53
2023/05/15 00:25:11;;;;;;;;;;;;;;;13.42;100.00;95205.41;5073368;28;1033;-53
2023/05/15 00:27:37;;;;;;;;;;;;;;;13.24;100.00;95193.06;5073391;28;1009;-53
2023/05/15 00:30:04;;;;;;;;;;;;;;;13.16;100.00;95213.75;5073404;28;1053;-53
2023/05/15 00:32:30;;;;;;;;;;;;;;;13.08;100.00;95228.88;5073012;28;1898;-53
2023/05/15 00:34:56;;;;;;;;;;;;;;;13.22;100.00;95232.69;5073348;28;957;-53
2023/05/15 00:37:22;;;;;;;;;;;;;;;13.31;100.00;95216.56;5073337;28;1024;-53
2023/05/15 00:39:48;;;;;;;;;;;;;;;13.19;100.00;95194.59;5075427;28;1042;-53
2023/05/15 00:42:16;;;;;;;;;;;;;;;13.06;100.00;95192.47;5077273;28;1089;-53
2023/05/15 00:44:43;;;;;;;;;;;;;;;13.12;100.00;95207.06;5076865;28;1097;-53
2023/05/15 00:47:09;;;;;;;;;;;;;;;13.16;100.00;95203.81;5077115;28;1033;-53
2023/05/15 00:49:36;;;;;;;;;;;;;;;13.22;100.00;95208.53;5077027;28;1097;-53
2023/05/15 00:52:03;;;;;;;;;;;;;;;13.31;100.00;95192.38;5076891;28;1985;-53
2023/05/15 00:54:29;;;;;;;;;;;;;;;13.39;100.00;95176.22;5077156;28;1045;-53
2023/05/15 00:56:56;;;;;;;;;;;;;;;13.31;100.00;95163.69;5077167;28;1048;-53
2023/05/15 00:59:24;;;;;;;;;;;;;;;13.35;100.00;95177.59;5076637;28;1022;-53
2023/05/15 01:01:50;;;;;;;;;;;;;;;13.38;100.00;95185.31;5077097;28;1020;-53
2023/05/15 01:04:16;;;;;;;;;;;;;;;13.42;100.00;95178.56;5076611;28;1106;-53
2023/05/15 01:06:42;;;;;;;;;;;;;;;13.28;100.00;95164.03;5077029;28;945;-53
2023/05/15 01:09:08;;;;;;;;;;;;;;;13.17;100.00;95162.56;5076769;28;1541;-53
2023/05/15 01:11:36;;;;;;;;;;;;;;;13.11;100.00;95165.97;5076787;28;1902;-53
2023/05/15 01:14:06;;;;;;;;;;;;;;;13.16;100.00;95166.25;5076819;28;1024;-53
2023/05/15 01:16:32;;;;;;;;;;;;;;;13.16;100.00;95160.88;5076423;28;1072;-53
2023/05/15 01:18:59;;;;;;;;;;;;;;;13.15;100.00;95155.72;5076456;28;1025;-53
2023/05/15 01:21:35;;;;;;;;;;;;;;;13.16;100.00;95144.78;5076623;28;993;-53
2023/05/15 01:24:19;;;;;;;;;;;;;;;13.12;100.00;95139.94;5076355;28;1093;-53
2023/05/15 01:26:48;;;;;;;;;;;;;;;13.08;100.00;95144.81;5076450;28;1017;-53
2023/05/15 01:29:14;;;;;;;;;;;;;;;13.04;100.00;95147.03;5076151;28;1268;-53
2023/05/15 01:31:41;;;;;;;;;;;;;;;13.05;100.00;95148.72;5076361;28;1901;-53
2023/05/15 01:34:08;;;;;;;;;;;;;;;13.12;100.00;95148.00;5076308;28;1545;-53
2023/05/15 01:36:34;;;;;;;;;;;;;;;13.25;100.00;95153.63;5076235;28;958;-53
2023/05/15 01:39:01;;;;;;;;;;;;;;;13.22;100.00;95153.97;5076390;28;1005;-53
2023/05/15 01:41:30;;;;;;;;;;;;;;;13.29;100.00;95171.88;5076334;28;1052;-53
2023/05/15 01:44:16;;;;;;;;;;;;;;;13.37;100.00;95162.97;5075881;28;1089;-53
2023/05/15 01:46:44;;;;;;;;;;;;;;;13.29;100.00;95157.63;5075728;28;2334;-53
2023/05/15 01:49:12;;;;;;;;;;;;;;;13.26;100.00;95149.91;5075585;28;1042;-53
2023/05/15 01:51:39;;;;;;;;;;;;;;;13.29;100.00;95147.72;5075668;28;1906;-53
2023/05/15 01:54:06;;;;;;;;;;;;;;;13.29;100.00;95149.56;5075982;28;1043;-53
2023/05/15 01:56:32;;;;;;;;;;;;;;;13.23;100.00;95143.06;5075698;28;997;-53
2023/05/15 01:58:59;;;;;;;;;;;;;;;13.29;100.00;95136.13;5075854;28;1020;-53
2023/05/15 02:01:26;;;;;;;;;;;;;;;13.38;100.00;95134.28;5057642;28;1038;-53
2023/05/15 02:03:53;;;;;;;;;;;;;;;13.24;100.00;95127.78;5075928;28;1064;-53
2023/05/15 02:06:20;;;;;;;;;;;;;;;13.20;100.00;95130.00;5075855;28;1033;-53
2023/05/15 02:08:47;;;;;;;;;;;;;;;13.23;100.00;95123.44;5075550;28;1548;-53
2023/05/15 02:11:13;;;;;;;;;;;;;;;13.14;100.00;95113.75;5075298;28;1993;-53
2023/05/15 02:13:41;;;;;;;;;;;;;;;13.24;100.00;95115.22;5075352;28;1361;-53
2023/05/15 02:16:07;;;;;;;;;;;;;;;13.29;100.00;95125.41;5075388;28;1094;-53
2023/05/15 02:18:33;;;;;;;;;;;;;;;13.34;100.00;95115.00;5075367;28;1052;-53
2023/05/15 02:21:02;;;;;;;;;;;;;;;13.31;100.00;95119.88;5075608;28;1013;-53
2023/05/15 02:23:28;;;;;;;;;;;;;;;13.33;100.00;95112.47;5075129;28;1016;-53
2023/05/15 02:25:57;;;;;;;;;;;;;;;13.44;100.00;95107.53;5075354;28;997;-53
2023/05/15 02:28:27;;;;;;;;;;;;;;;13.44;100.00;95112.06;5057376;28;1117;-53
2023/05/15 02:31:04;;;;;;;;;;;;;;;13.35;100.00;95108.59;5075306;28;1045;-53
2023/05/15 02:33:33;;;;;;;;;;;;;;;13.34;100.00;95112.31;5075007;28;1050;-53
2023/05/15 02:36:06;;;;;;;;;;;;;;;13.34;100.00;95122.22;5075249;28;966;-53
2023/05/15 02:38:45;;;;;;;;;;;;;;;13.26;100.00;95120.38;5075097;28;977;-53
2023/05/15 02:41:12;;;;;;;;;;;;;;;13.29;100.00;95128.09;5075033;28;1041;-53
2023/05/15 02:43:38;;;;;;;;;;;;;;;13.23;100.00;95123.44;5074686;28;1278;-53
2023/05/15 02:46:06;;;;;;;;;;;;;;;13.17;100.00;95130.34;5075105;28;998;-53
2023/05/15 02:48:32;;;;;;;;;;;;;;;13.09;100.00;95117.00;5074908;28;983;-53
2023/05/15 02:50:59;;;;;;;;;;;;;;;12.96;100.00;95104.16;5056885;28;1988;-53
2023/05/15 02:53:25;;;;;;;;;;;;;;;12.88;100.00;95106.84;5074479;28;1038;-53
2023/05/15 02:55:51;;;;;;;;;;;;;;;12.88;100.00;95110.41;5074877;28;973;-53
2023/05/15 02:58:17;;;;;;;;;;;;;;;12.94;100.00;95111.53;5074326;28;1058;-53
2023/05/15 03:00:43;;;;;;;;;;;;;;;13.02;100.00;95116.84;5074515;28;1029;-53
2023/05/15 03:03:09;;;;;;;;;;;;;;;13.16;100.00;95122.47;5073612;28;1054;-53
2023/05/15 03:05:35;;;;;;;;;;;;;;;13.11;100.00;95111.41;5074450;28;1029;-53
2023/05/15 03:08:01;;;;;;;;;;;;;;;13.09;100.00;95115.13;5074268;28;1048;-53
2023/05/15 03:10:27;;;;;;;;;;;;;;;12.98;100.00;95110.16;5074511;28;1370;-53
2023/05/15 03:12:57;;;;;;;;;;;;;;;12.69;100.00;95114.34;5074156;28;1910;-53
2023/05/15 03:15:23;;;;;;;;;;;;;;;12.77;100.00;95118.00;5074098;28;1283;-53
2023/05/15 03:17:49;;;;;;;;;;;;;;;12.89;100.00;95112.06;5056459;28;1104;-53
2023/05/15 03:20:15;;;;;;;;;;;;;;;13.00;100.00;95101.94;5074332;28;1021;-53
2023/05/15 03:22:41;;;;;;;;;;;;;;;13.11;100.00;95104.22;5074360;28;1052;-53
2023/05/15 03:25:10;;;;;;;;;;;;;;;13.10;100.00;95097.16;5074322;28;1048;-53
2023/05/15 03:27:36;;;;;;;;;;;;;;;13.17;100.00;95105.38;5073970;28;1085;-54
2023/05/15 03:30:03;;;;;;;;;;;;;;;13.07;100.00;95094.84;5073871;28;1034;-54
2023/05/15 03:32:29;;;;;;;;;;;;;;;13.02;100.00;95089.19;5074083;28;1994;-53
2023/05/15 03:34:55;;;;;;;;;;;;;;;13.07;100.00;95101.06;5074179;28;1322;-53
2023/05/15 03:37:21;;;;;;;;;;;;;;;13.14;100.00;95103.03;5073977;28;1053;-53
2023/05/15 03:39:47;;;;;;;;;;;;;;;13.11;100.00;95095.31;5073764;28;1132;-53
2023/05/15 03:42:13;;;;;;;;;;;;;;;12.96;100.00;95098.78;5073656;28;1026;-54
2023/05/15 03:44:39;;;;;;;;;;;;;;;12.85;100.00;95096.50;5073499;28;1081;-53
2023/05/15 03:47:05;;;;;;;;;;;;;;;12.93;100.00;95090.25;5073639;28;1096;-53
2023/05/15 03:49:31;;;;;;;;;;;;;;;12.97;100.00;95075.44;5073487;28;2009;-54
2023/05/15 03:51:57;;;;;;;;;;;;;;;12.96;100.00;95076.47;5073820;28;1918;-53
2023/05/15 03:54:23;;;;;;;;;;;;;;;12.94;100.00;95079.34;5073471;28;1041;-54
2023/05/15 03:56:49;;;;;;;;;;;;;;;12.99;100.00;95074.25;5073524;28;1117;-54
2023/05/15 03:59:15;;;;;;;;;;;;;;;13.04;100.00;95096.03;5073314;28;1290;-54
2023/05/15 04:01:41;;;;;;;;;;;;;;;13.02;100.00;95089.19;5073552;28;1009;-53
2023/05/15 04:04:08;;;;;;;;;;;;;;;13.03;100.00;95080.09;5073403;28;1045;-53
2023/05/15 04:06:34;;;;;;;;;;;;;;;13.02;100.00;95078.44;5073665;28;1047;-54
2023/05/15 04:09:00;;;;;;;;;;;;;;;13.04;100.00;95071.03;5073282;28;1672;-54
2023/05/15 04:11:27;;;;;;;;;;;;;;;13.06;100.00;95060.97;5073394;28;1991;-54
2023/05/15 04:13:53;;;;;;;;;;;;;;;13.10;100.00;95073.00;5073108;28;1021;-53
2023/05/15 04:16:19;;;;;;;;;;;;;;;13.18;100.00;95067.56;5073249;28;1977;-53
2023/05/15 04:18:45;;;;;;;;;;;;;;;13.17;100.00;95073.97;5073226;28;910;-53
2023/05/15 04:21:11;;;;;;;;;;;;;;;13.06;100.00;95085.13;5073412;28;1021;-54
2023/05/15 04:23:37;;;;;;;;;;;;;;;13.03;100.00;95094.38;5073434;28;973;-53
2023/05/15 04:26:03;;;;;;;;;;;;;;;13.12;100.00;95083.56;5073450;28;1037;-53
2023/05/15 04:28:29;;;;;;;;;;;;;;;13.21;100.00;95080.66;5073161;28;1049;-53
2023/05/15 04:30:55;;;;;;;;;;;;;;;13.23;100.00;95088.53;5073498;28;967;-54
2023/05/15 04:33:21;;;;;;;;;;;;;;;13.05;100.00;95086.97;5072958;28;1906;-54
2023/05/15 04:35:47;;;;;;;;;;;;;;;12.98;100.00;95082.50;5073328;28;1305;-54
2023/05/15 04:38:12;;;;;;;;;;;;;;;12.97;100.00;95075.44;5073318;28;1002;-54
2023/05/15 04:40:38;;;;;;;;;;;;;;;13.10;100.00;95078.38;5073142;28;1113;-54
2023/05/15 04:43:05;;;;;;;;;;;;;;;13.18;100.00;95082.84;5073051;28;1093;-54
2023/05/15 04:45:31;;;;;;;;;;;;;;;13.29;100.00;95079.75;5073231;28;1020;-54
2023/05/15 04:47:57;;;;;;;;;;;;;;;13.35;100.00;95078.22;5073249;28;1020;-54
2023/05/15 04:50:23;;;;;;;;;;;;;;;13.34;100.00;95088.16;5073177;28;1029;-54
2023/05/15 04:52:49;;;;;;;;;;;;;;;13.33;100.00;95086.47;5073162;28;1906;-54
2023/05/15 04:55:15;;;;;;;;;;;;;;;13.46;100.00;95084.00;5072757;28;1074;-54
2023/05/15 04:57:41;;;;;;;;;;;;;;;13.59;100.00;95075.34;5072907;28;1003;-54
2023/05/15 05:00:10;;;;;;;;;;;;;;;13.64;100.00;95081.00;5073024;28;958;-54
2023/05/15 05:02:37;;;;;;;;;;;;;;;13.71;100.00;95093.72;5072910;28;1145;-54
2023/05/15 05:05:04;;;;;;;;;;;;;;;13.67;100.00;95085.19;5073172;28;1013;-54
2023/05/15 05:07:30;;;;;;;;;;;;;;;13.67;100.00;95079.81;5072736;28;1208;-54
2023/05/15 05:09:56;;;;;;;;;;;;;;;13.79;100.00;95083.72;5072724;28;1229;-54
2023/05/15 05:12:21;;;;;;;;;;;;;;;13.88;100.00;95083.66;5072531;28;1906;-54
2023/05/15 05:14:48;;;;;;;;;;;;;;;13.86;100.00;95092.72;5072787;28;1045;-54
2023/05/15 05:17:14;;;;;;;;;;;;;;;13.83;100.00;95095.78;5072704;28;1043;-54
2023/05/15 05:19:40;;;;;;;;;;;;;;;13.95;100.00;95095.34;5072809;28;973;-54
2023/05/15 05:22:06;;;;;;;;;;;;;;;14.09;100.00;95099.88;5072999;28;973;-53
2023/05/15 05:24:34;;;;;;;;;;;;;;;14.24;100.00;95079.22;5072712;28;1038;-54
2023/05/15 05:27:00;;;;;;;;;;;;;;;14.51;100.00;95078.75;5076312;28;1008;-54
2023/05/15 05:29:26;;;;;;;;;;;;;;;14.42;100.00;95076.16;5076286;28;1028;-54
2023/05/15 05:31:52;;;;;;;;;;;;;;;14.37;100.00;95072.34;5076436;28;1910;-54
2023/05/15 05:34:18;;;;;;;;;;;;;;;14.51;100.00;95071.50;5076461;28;1059;-55
2023/05/15 05:36:44;;;;;;;;;;;;;;;14.60;100.00;95070.41;5058355;28;1105;-55
2023/05/15 05:39:10;;;;;;;;;;;;;;;14.62;100.00;95072.91;5075978;28;1033;-55
2023/05/15 05:41:36;;;;;;;;;;;;;;;14.67;100.00;95077.75;5076135;28;966;-54
2023/05/15 05:44:02;;;;;;;;;;;;;;;14.69;99.40;95083.78;5075957;28;1314;-54
2023/05/15 05:46:28;;;;;;;;;;;;;;;14.67;98.91;95089.34;5075894;28;1045;-54
2023/05/15 05:48:54;;;;;;;;;;;;;;;14.49;97.11;95084.31;5076164;28;1099;-54
2023/05/15 05:51:20;;;;;;;;;;;;;;;14.32;99.93;95074.75;5076021;28;1993;-54
2023/05/15 05:53:46;;;;;;;;;;;;;;;14.23;100.00;95069.50;5076008;28;962;-54
2023/05/15 05:56:12;;;;;;;;;;;;;;;14.13;100.00;95070.78;5075864;28;1033;-53
2023/05/15 05:58:38;;;;;;;;;;;;;;;14.12;100.00;95072.63;5075899;28;1206;-54
2023/05/15 06:01:05;;;;;;;;;;;;;;;14.15;100.00;95076.81;5075938;28;994;-53
2023/05/15 06:03:33;;;;;;;;;;;;;;;14.19;99.94;95081.66;5075527;28;1029;-54
2023/05/15 06:05:59;;;;;;;;;;;;;;;14.34;100.00;95089.72;5075924;28;1025;-54
2023/05/15 06:08:25;;;;;;;;;;;;;;;14.34;98.80;95086.16;5075632;28;1731;-54
2023/05/15 06:10:51;;;;;;;;;;;;;;;14.25;98.20;95096.19;5075788;28;1051;-54
2023/05/15 06:13:17;;;;;;;;;;;;;;;14.25;100.00;95098.88;5075174;28;1910;-54
2023/05/15 06:15:45;;;;;;;;;;;;;;;14.37;98.79;95108.16;5075514;28;1009;-54
2023/05/15 06:18:11;;;;;;;;;;;;;;;14.31;99.24;95094.63;5075275;28;1045;-54
2023/05/15 06:20:37;;;;;;;;;;;;;;;14.21;99.63;95095.72;5075299;28;1037;-54
2023/05/15 06:23:03;;;;;;;;;;;;;;;14.16;99.34;95100.00;5075433;28;1052;-54
2023/05/15 06:25:29;;;;;;;;;;;;;;;14.22;100.00;95104.63;5075431;28;1043;-53
2023/05/15 06:27:55;;;;;;;;;;;;;;;14.25;100.00;95107.78;5075250;28;1285;-54
2023/05/15 06:30:21;;;;;;;;;;;;;;;14.20;100.00;95110.19;5075399;28;1269;-54
2023/05/15 06:32:47;;;;;;;;;;;;;;;14.27;100.00;95106.78;5075013;28;1906;-53
2023/05/15 06:35:13;;;;;;;;;;;;;;;14.21;100.00;95113.72;5075177;28;1009;-54
2023/05/15 06:37:39;;;;;;;;;;;;;;;14.31;100.00;95116.97;5075229;28;1063;-54
2023/05/15 06:40:05;;;;;;;;;;;;;;;14.38;100.00;95117.91;5057474;28;954;-55
2023/05/15 06:42:31;;;;;;;;;;;;;;;14.38;100.00;95111.66;5074617;28;1304;-54
2023/05/15 06:44:58;;;;;;;;;;;;;;;14.33;100.00;95114.94;5075267;28;1039;-54
2023/05/15 06:47:24;;;;;;;;;;;;;;;14.45;100.00;95112.59;5074742;28;1034;-53
2023/05/15 06:49:50;;;;;;;;;;;;;;;14.53;100.00;95108.97;5074983;28;1020;-54
2023/05/15 06:52:16;;;;;;;;;;;;;;;14.61;98.93;95109.75;5074583;28;1909;-53
2023/05/15 06:54:42;;;;;;;;;;;;;;;14.71;99.15;95104.06;5074831;28;989;-53
2023/05/15 06:57:08;;;;;;;;;;;;;;;14.70;98.75;95105.13;5074674;28;1309;-54
2023/05/15 06:59:34;;;;;;;;;;;;;;;14.76;97.48;95104.38;5074533;28;1022;-54
2023/05/15 07:02:01;;;;;;;;;;;;;;;14.78;97.14;95106.88;5074501;28;1104;-54
2023/05/15 07:04:27;;;;;;;;;;;;;;;14.78;97.28;95104.19;5056778;28;942;-54
2023/05/15 07:06:53;;;;;;;;;;;;;;;14.64;96.20;95085.19;5074457;28;1037;-54
2023/05/15 07:09:19;;;;;;;;;;;;;;;14.50;97.40;95060.94;5074235;28;1523;-53
2023/05/15 07:11:45;;;;;;;;;;;;;;;14.80;96.20;95089.50;5074488;28;1993;-53
2023/05/15 07:14:11;;;;;;;;;;;;;;;14.88;96.32;95088.56;5074484;28;954;-53
2023/05/15 07:16:37;;;;;;;;;;;;;;;15.08;95.72;95093.31;5074500;28;1040;-54
2023/05/15 07:19:03;;;;;;;;;;;;;;;15.18;96.06;95101.94;5074141;28;1092;-52
2023/05/15 07:21:29;;;;;;;;;;;;;;;15.31;97.25;95098.53;5074115;28;1894;-53
2023/05/15 07:23:55;;;;;;;;;;;;;;;15.55;95.08;95110.78;5074080;28;1112;-53
2023/05/15 07:26:21;;;;;;;;;;;;;;;15.62;94.58;95100.91;5074047;28;1045;-53
2023/05/15 07:28:47;;;;;;;;;;;;;;;15.84;95.30;95103.63;5074031;28;1125;-53
2023/05/15 07:31:13;;;;;;;;;;;;;;;16.06;95.62;95096.31;5073703;28;1988;-54
2023/05/15 07:33:39;;;;;;;;;;;;;;;16.51;90.73;95102.22;5073797;28;922;-54
2023/05/15 07:36:05;;;;;;;;;;;;;;;16.62;90.06;95098.09;5073606;28;1032;-54
2023/05/15 07:38:31;;;;;;;;;;;;;;;16.48;89.35;95097.22;5073964;28;1036;-54
2023/05/15 07:40:57;;;;;;;;;;;;;;;16.64;89.23;95087.94;5073925;28;998;-54
2023/05/15 07:43:23;;;;;;;;;;;;;;;16.77;88.89;95093.44;5073490;28;1240;-54
2023/05/15 07:45:49;;;;;;;;;;;;;;;16.90;87.92;95090.81;5073567;28;1033;-54
2023/05/15 07:48:17;;;;;;;;;;;;;;;16.86;86.50;95089.53;5073170;28;1100;-54
2023/05/15 07:50:44;;;;;;;;;;;;;;;16.99;86.72;95083.34;5073937;28;1128;-54
2023/05/15 07:53:11;;;;;;;;;;;;;;;17.24;85.38;95075.53;5073188;28;1993;-54
2023/05/15 07:55:36;;;;;;;;;;;;;;;17.44;83.65;95080.97;5073624;28;973;-54
2023/05/15 07:58:03;;;;;;;;;;;;;;;17.53;84.38;95082.44;5073550;28;998;-53
2023/05/15 08:00:29;;;;;;;;;;;;;;;17.45;84.02;95079.09;5073516;28;1044;-53
2023/05/15 08:02:55;;;;;;;;;;;;;;;17.00;82.75;95068.84;5073632;28;1001;-54
2023/05/15 08:05:21;;;;;;;;;;;;;;;16.79;84.24;95064.38;5073537;28;1021;-54
2023/05/15 08:07:47;;;;;;;;;;;;;;;16.78;84.74;95063.50;5073576;28;1028;-53
2023/05/15 08:10:12;;;;;;;;;;;;;;;16.64;86.99;95056.41;5073119;28;1331;-54
2023/05/15 08:12:44;;;;;;;;;;;;;;;16.53;87.55;95052.41;5073241;28;1910;-54
2023/05/15 08:15:10;;;;;;;;;;;;;;;16.64;87.07;95060.94;5073411;28;954;-54
2023/05/15 08:17:36;;;;;;;;;;;;;;;16.67;85.93;95060.56;5073392;28;1057;-54
2023/05/15 08:20:03;;;;;;;;;;;;;;;16.39;84.08;95058.78;5073505;28;966;-53
2023/05/15 08:22:30;;;;;;;;;;;;;;;16.54;87.29;95077.53;5073082;28;1214;-54
2023/05/15 08:24:56;;;;;;;;;;;;;;;16.74;85.51;95077.63;5072970;28;1069;-54
2023/05/15 08:27:22;;;;;;;;;;;;;;;16.67;86.76;95079.44;5073138;28;1017;-53
2023/05/15 08:29:49;;;;;;;;;;;;;;;16.64;87.66;95079.84;5073334;28;970;-54
2023/05/15 08:32:14;;;;;;;;;;;;;;;16.51;89.32;95069.84;5073131;28;1911;-54
2023/05/15 08:34:41;;;;;;;;;;;;;;;16.51;90.11;95067.97;5073238;28;974;-54
2023/05/15 08:37:07;;;;;;;;;;;;;;;16.54;91.08;95064.88;5072998;28;1004;-53
2023/05/15 08:39:33;;;;;;;;;;;;;;;16.61;87.61;95073.00;5073105;28;986;-53
2023/05/15 08:42:07;;;;;;;;;;;;;;;16.69;87.58;95062.00;5072958;28;1089;-54
2023/05/15 08:44:33;;;;;;;;;;;;;;;16.59;88.08;95058.88;5072752;28;1271;-54
2023/05/15 08:46:59;;;;;;;;;;;;;;;16.61;88.23;95073.00;5072973;28;1121;-54
2023/05/15 08:49:30;;;;;;;;;;;;;;;16.41;89.45;95056.72;5055176;28;988;-54
2023/05/15 08:51:56;;;;;;;;;;;;;;;16.47;89.66;95055.91;5073197;28;1989;-54
2023/05/15 08:54:23;;;;;;;;;;;;;;;16.30;87.29;95057.28;5072674;28;1057;-53
2023/05/15 08:56:49;;;;;;;;;;;;;;;16.36;87.82;95051.06;5072704;28;928;-53
2023/05/15 08:59:15;;;;;;;;;;;;;;;16.36;86.48;95046.50;5073080;28;1155;-54
2023/05/15 09:01:41;;;;;;;;;;;;;;;16.34;86.76;95048.56;5076409;28;1037;-53
2023/05/15 09:04:07;;;;;;;;;;;;;;;16.24;89.55;95048.13;5077004;28;1036;-53
2023/05/15 09:06:35;;;;;;;;;;;;;;;16.07;90.12;95053.00;5076681;28;978;-53
2023/05/15 09:09:02;;;;;;;;;;;;;;;16.10;91.91;95055.28;5076785;28;1284;-54
2023/05/15 09:11:28;;;;;;;;;;;;;;;16.08;92.67;95065.44;5076249;28;1917;-54
2023/05/15 09:13:58;;;;;;;;;;;;;;;16.11;93.18;95061.50;5076795;28;1041;-54
2023/05/15 09:16:24;;;;;;;;;;;;;;;16.09;93.21;95069.81;5058747;28;1026;-52
2023/05/15 09:18:51;;;;;;;;;;;;;;;16.01;94.11;95067.22;5076538;28;1025;-54
2023/05/15 09:21:24;;;;;;;;;;;;;;;15.96;92.44;95056.22;5076268;28;1108;-54
2023/05/15 09:23:50;;;;;;;;;;;;;;;15.89;92.99;95061.56;5076812;28;1066;-53
2023/05/15 09:26:16;;;;;;;;;;;;;;;15.86;93.37;95066.50;5075969;28;1105;-54
2023/05/15 09:28:42;;;;;;;;;;;;;;;15.74;94.16;95064.34;5076192;28;1228;-54
2023/05/15 09:31:08;;;;;;;;;;;;;;;15.85;94.38;95064.84;5076354;28;1028;-54
2023/05/15 09:33:43;;;;;;;;;;;;;;;16.01;93.31;95075.31;5075956;28;1911;-54
2023/05/15 09:36:09;;;;;;;;;;;;;;;16.03;93.52;95081.38;5076423;28;1049;-53
2023/05/15 09:38:40;;;;;;;;;;;;;;;16.15;94.24;95076.28;5076003;28;922;-53
2023/05/15 09:41:07;;;;;;;;;;;;;;;16.05;95.28;95071.22;5075818;28;1197;-53
2023/05/15 09:43:34;;;;;;;;;;;;;;;16.09;93.82;95079.75;5075717;28;1202;-54
2023/05/15 09:46:00;;;;;;;;;;;;;;;16.08;94.15;95081.59;5075841;28;1058;-53
2023/05/15 09:48:27;;;;;;;;;;;;;;;16.10;93.59;95084.94;5076105;28;999;-53
2023/05/15 09:50:53;;;;;;;;;;;;;;;16.19;93.85;95080.22;5075816;28;1208;-53
2023/05/15 09:53:20;;;;;;;;;;;;;;;16.08;93.99;95078.91;5075830;28;1906;-54
2023/05/15 09:55:47;;;;;;;;;;;;;;;16.02;94.58;95076.19;5075643;28;1035;-54
2023/05/15 09:58:14;;;;;;;;;;;;;;;16.10;94.63;95082.25;5075937;28;981;-53
2023/05/15 10:00:41;;;;;;;;;;;;;;;16.15;93.86;95079.78;5075646;28;1085;-54
2023/05/15 10:03:07;;;;;;;;;;;;;;;16.05;93.26;95081.16;5075895;28;966;-54
2023/05/15 10:05:33;;;;;;;;;;;;;;;15.97;94.59;95087.53;5075453;28;1101;-53
2023/05/15 10:08:00;;;;;;;;;;;;;;;15.92;94.46;95082.75;5075408;28;1864;-53
2023/05/15 10:10:26;;;;;;;;;;;;;;;15.95;94.76;95082.38;5075079;28;1356;-54
2023/05/15 10:12:54;;;;;;;;;;;;;;;16.02;94.25;95079.69;5075644;28;1983;-54
2023/05/15 10:15:20;;;;;;;;;;;;;;;16.12;94.35;95069.38;5075297;28;1022;-54
2023/05/15 10:17:48;;;;;;;;;;;;;;;16.17;93.71;95072.34;5075357;28;1086;-54
2023/05/15 10:20:17;;;;;;;;;;;;;;;16.17;93.18;95074.19;5075199;28;1022;-54
2023/05/15 10:22:49;;;;;;;;;;;;;;;16.03;91.40;95062.50;5075742;28;1045;-53
2023/05/15 10:25:14;;;;;;;;;;;;;;;16.01;92.80;95053.75;5074983;28;1085;-54
2023/05/15 10:27:41;;;;;;;;;;;;;;;16.12;92.94;95076.66;5075328;28;1028;-54
2023/05/15 10:30:09;;;;;;;;;;;;;;;16.33;92.07;95079.28;5075402;28;1033;-54
2023/05/15 10:32:35;;;;;;;;;;;;;;;16.45;89.92;95090.34;5074725;28;1981;-54
2023/05/15 10:35:01;;;;;;;;;;;;;;;16.45;89.68;95087.66;5074957;28;1056;-54
2023/05/15 10:37:27;;;;;;;;;;;;;;;16.36;87.63;95081.56;5074924;28;970;-54
2023/05/15 10:39:54;;;;;;;;;;;;;;;16.45;88.26;95087.66;5074543;28;1050;-53
2023/05/15 10:42:21;;;;;;;;;;;;;;;16.71;88.09;95094.22;5074938;28;1045;-54
2023/05/15 10:44:48;;;;;;;;;;;;;;;16.77;85.36;95091.56;5074681;28;1259;-54
2023/05/15 10:47:14;;;;;;;;;;;;;;;16.83;85.78;95078.28;5074734;28;2120;-54
2023/05/15 10:49:40;;;;;;;;;;;;;;;16.91;86.36;95073.56;5074979;28;1032;-54
2023/05/15 10:52:08;;;;;;;;;;;;;;;16.94;85.46;95067.78;5057124;28;1910;-54
2023/05/15 10:54:34;;;;;;;;;;;;;;;16.98;85.74;95065.50;5074313;28;1199;-54
2023/05/15 10:57:00;;;;;;;;;;;;;;;16.98;86.59;95071.72;5074781;28;1029;-54
2023/05/15 10:59:32;;;;;;;;;;;;;;;17.05;83.06;95076.31;5074751;28;1097;-54
2023/05/15 11:02:18;;;;;;;;;;;;;;;17.06;82.53;95086.91;5074798;28;1029;-54
2023/05/15 11:04:44;;;;;;;;;;;;;;;17.10;84.08;95080.06;5074722;28;1032;-53
2023/05/15 11:07:11;;;;;;;;;;;;;;;17.14;86.03;95080.50;5074286;28;1122;-54
2023/05/15 11:09:37;;;;;;;;;;;;;;;17.05;85.84;95070.91;5074412;28;1383;-54
2023/05/15 11:12:04;;;;;;;;;;;;;;;17.36;84.17;95071.19;5074183;28;1971;-54
2023/05/15 11:14:34;;;;;;;;;;;;;;;17.66;83.82;95072.69;5074176;28;1022;-54
2023/05/15 11:17:02;;;;;;;;;;;;;;;17.76;81.97;95071.22;5074161;28;1097;-53
2023/05/15 11:19:36;;;;;;;;;;;;;;;17.51;82.62;95067.47;5074261;28;1008;-54
2023/05/15 11:22:05;;;;;;;;;;;;;;;17.46;83.55;95068.09;5074063;28;977;-53
2023/05/15 11:24:32;;;;;;;;;;;;;;;17.36;83.96;95060.38;5073788;28;1004;-53
2023/05/15 11:27:02;;;;;;;;;;;;;;;17.56;82.75;95054.16;5074057;28;982;-53
2023/05/15 11:29:28;;;;;;;;;;;;;;;17.55;84.05;95050.63;5073819;28;1066;-54
2023/05/15 11:31:54;;;;;;;;;;;;;;;17.47;83.93;95041.88;5074071;28;1910;-54
2023/05/15 11:34:33;;;;;;;;;;;;;;;17.43;84.70;95046.03;5073943;28;1021;-53
2023/05/15 11:36:59;;;;;;;;;;;;;;;17.54;83.74;95048.13;5073839;28;1040;-53
2023/05/15 11:39:26;;;;;;;;;;;;;;;17.59;85.03;95034.84;5073557;28;1101;-54
2023/05/15 11:41:53;;;;;;;;;;;;;;;17.62;82.95;95026.28;5073725;28;1029;-53
2023/05/15 11:44:23;;;;;;;;;;;;;;;17.80;82.81;95020.28;5073510;28;1097;-54
2023/05/15 11:46:50;;;;;;;;;;;;;;;18.00;84.22;95019.44;5073950;28;1002;-54
2023/05/15 11:49:19;;;;;;;;;;;;;;;17.88;83.42;95009.25;5073473;28;1038;-54
2023/05/15 11:51:47;;;;;;;;;;;;;;;17.79;83.03;95002.38;5073476;28;1905;-54
2023/05/15 11:54:13;;;;;;;;;;;;;;;17.60;84.42;94995.13;5073255;28;1020;-54
2023/05/15 11:56:45;;;;;;;;;;;;;;;17.72;83.59;94990.75;5073491;28;1052;-54
2023/05/15 11:59:15;;;;;;;;;;;;;;;17.93;84.27;94976.19;5073374;28;1034;-54
2023/05/15 12:01:42;;;;;;;;;;;;;;;17.96;84.05;94975.75;5073500;28;1054;-54
2023/05/15 12:04:16;;;;;;;;;;;;;;;18.01;84.22;94964.31;5073547;28;945;-53
2023/05/15 12:06:43;;;;;;;;;;;;;;;18.17;83.56;94965.72;5073675;28;1017;-53
2023/05/15 12:09:13;;;;;;;;;;;;;;;18.05;82.83;94971.78;5073143;28;1607;-53
2023/05/15 12:11:39;;;;;;;;;;;;;;;18.04;82.01;94986.38;5073477;28;1984;-53
2023/05/15 12:14:09;;;;;;;;;;;;;;;18.20;81.72;94989.66;5073603;28;1021;-54
2023/05/15 12:16:35;;;;;;;;;;;;;;;18.28;82.10;94990.25;5055678;28;1052;-54
2023/05/15 12:19:01;;;;;;;;;;;;;;;18.50;82.68;94985.38;5073362;28;1041;-54
2023/05/15 12:21:27;;;;;;;;;;;;;;;18.64;82.29;94978.03;5073366;28;962;-54
2023/05/15 12:23:54;;;;;;;;;;;;;;;18.62;81.44;94979.28;5055320;28;982;-54
2023/05/15 12:26:21;;;;;;;;;;;;;;;18.82;82.06;94969.22;5073042;28;1209;-54
2023/05/15 12:28:48;;;;;;;;;;;;;;;19.19;81.53;94958.56;5073397;28;1017;-54
2023/05/15 12:31:16;;;;;;;;;;;;;;;19.23;80.79;94951.66;5073073;28;1035;-54
2023/05/15 12:33:42;;;;;;;;;;;;;;;19.28;80.23;94942.88;5074115;28;1984;-54
2023/05/15 12:36:08;;;;;;;;;;;;;;;19.49;78.14;94936.25;5080080;28;1044;-54
2023/05/15 12:38:38;;;;;;;;;;;;;;;19.43;77.90;94929.00;5079746;28;1036;-53
2023/05/15 12:41:04;;;;;;;;;;;;;;;19.50;79.35;94924.31;5079821;28;967;-54
2023/05/15 12:43:30;;;;;;;;;;;;;;;19.50;77.80;94922.47;5079609;28;1021;-54
2023/05/15 12:45:57;;;;;;;;;;;;;;;19.22;79.09;94916.66;5062026;28;1001;-54
2023/05/15 12:48:27;;;;;;;;;;;;;;;19.00;80.11;94908.06;5079616;28;1081;-54
2023/05/15 12:50:53;;;;;;;;;;;;;;;19.20;81.58;94916.03;5079686;28;994;-54